Cedarville, Massachusetts
Current Conditions -  °F | °C
As of 10:52 PM on Thursday 18 Dec 2014 (Local Time) from KPYM Reporting Station
Clear Clear  
Wind Chill: 27°   Ceiling: Unl
Heat Index: 33°   Visibility: 10mi
Dew Point: 27°   Wind: 7mph
Humidity: 78%   Direction: 250°WSW
Pressure: 29.86"   Gusts: NA
Location:  41.879°N, 70.6307°W
Report Text: KPYM 190352Z AUTO 25006KT 10SM CLR 01/M03 A2986 RMK AO2 SLP112 T00061028
Loading
Personal Weather Stations






























Interactive Weather Map New forecast layout! Learn more

10-Day Weather Forecast

Advertisements
Track Severe Weather on mobile